sensor_id;sensor_type;location;lat;lon;timestamp;temperature;humidity
14079;DHT22;7115;50.150;8.568;2023-04-03T00:02:05;7.30;99.90
14079;DHT22;7115;50.150;8.568;2023-04-03T00:04:32;7.30;99.90
14079;DHT22;7115;50.150;8.568;2023-04-03T00:06:59;7.30;99.90
14079;DHT22;7115;50.150;8.568;2023-04-03T00:09:28;7.30;99.90
14079;DHT22;7115;50.150;8.568;2023-04-03T00:11:55;7.40;99.90
14079;DHT22;7115;50.150;8.568;2023-04-03T00:14:21;7.30;99.90
14079;DHT22;7115;50.150;8.568;2023-04-03T00:16:48;7.40;99.90
14079;DHT22;7115;50.150;8.568;2023-04-03T00:19:15;7.40;99.90
14079;DHT22;7115;50.150;8.568;2023-04-03T00:21:42;7.40;99.90
14079;DHT22;7115;50.150;8.568;2023-04-03T00:24:09;7.40;99.90
14079;DHT22;7115;50.150;8.568;2023-04-03T00:26:38;7.40;99.90
14079;DHT22;7115;50.150;8.568;2023-04-03T00:29:04;7.50;99.90
14079;DHT22;7115;50.150;8.568;2023-04-03T00:31:31;7.50;99.90
14079;DHT22;7115;50.150;8.568;2023-04-03T00:33:58;7.50;99.90
14079;DHT22;7115;50.150;8.568;2023-04-03T00:36:25;7.50;99.90
14079;DHT22;7115;50.150;8.568;2023-04-03T00:38:52;7.50;99.90
14079;DHT22;7115;50.150;8.568;2023-04-03T00:41:19;7.50;99.90
14079;DHT22;7115;50.150;8.568;2023-04-03T00:43:48;7.60;99.90
14079;DHT22;7115;50.150;8.568;2023-04-03T00:46:14;7.60;99.90
14079;DHT22;7115;50.150;8.568;2023-04-03T00:48:46;7.60;99.90
14079;DHT22;7115;50.150;8.568;2023-04-03T00:51:14;7.60;99.90
14079;DHT22;7115;50.150;8.568;2023-04-03T00:53:46;7.60;99.90
14079;DHT22;7115;50.150;8.568;2023-04-03T00:56:15;7.60;99.90
14079;DHT22;7115;50.150;8.568;2023-04-03T00:58:46;7.60;99.90
14079;DHT22;7115;50.150;8.568;2023-04-03T01:01:20;7.60;99.90
14079;DHT22;7115;50.150;8.568;2023-04-03T01:03:48;7.60;99.90
14079;DHT22;7115;50.150;8.568;2023-04-03T01:06:17;7.60;99.90
14079;DHT22;7115;50.150;8.568;2023-04-03T01:08:44;7.60;99.90
14079;DHT22;7115;50.150;8.568;2023-04-03T01:11:13;7.60;99.90
14079;DHT22;7115;50.150;8.568;2023-04-03T01:13:40;7.60;99.90
14079;DHT22;7115;50.150;8.568;2023-04-03T01:16:07;7.60;99.90
14079;DHT22;7115;50.150;8.568;2023-04-03T01:18:38;7.60;99.90
14079;DHT22;7115;50.150;8.568;2023-04-03T01:21:40;7.60;99.90
14079;DHT22;7115;50.150;8.568;2023-04-03T01:27:01;7.60;99.90
14079;DHT22;7115;50.150;8.568;2023-04-03T01:29:29;7.50;99.90
14079;DHT22;7115;50.150;8.568;2023-04-03T01:31:59;7.50;99.90
14079;DHT22;7115;50.150;8.568;2023-04-03T01:34:28;7.60;99.90
14079;DHT22;7115;50.150;8.568;2023-04-03T01:36:56;7.60;99.90
14079;DHT22;7115;50.150;8.568;2023-04-03T01:39:23;7.50;99.90
14079;DHT22;7115;50.150;8.568;2023-04-03T01:41:50;7.50;99.90
14079;DHT22;7115;50.150;8.568;2023-04-03T01:44:17;7.50;99.90
14079;DHT22;7115;50.150;8.568;2023-04-03T01:46:44;7.50;99.90
14079;DHT22;7115;50.150;8.568;2023-04-03T01:49:12;7.50;99.90
14079;DHT22;7115;50.150;8.568;2023-04-03T01:51:39;7.50;99.90
14079;DHT22;7115;50.150;8.568;2023-04-03T01:54:06;7.50;99.90
14079;DHT22;7115;50.150;8.568;2023-04-03T01:56:33;7.40;99.90
14079;DHT22;7115;50.150;8.568;2023-04-03T01:59:00;7.40;99.90
14079;DHT22;7115;50.150;8.568;2023-04-03T02:01:27;7.40;99.90
14079;DHT22;7115;50.150;8.568;2023-04-03T02:03:54;7.40;99.90
14079;DHT22;7115;50.150;8.568;2023-04-03T02:06:22;7.40;99.90
14079;DHT22;7115;50.150;8.568;2023-04-03T02:08:50;7.40;99.90
14079;DHT22;7115;50.150;8.568;2023-04-03T02:11:17;7.40;99.90
14079;DHT22;7115;50.150;8.568;2023-04-03T02:13:44;7.40;99.90
14079;DHT22;7115;50.150;8.568;2023-04-03T02:16:11;7.40;99.90
14079;DHT22;7115;50.150;8.568;2023-04-03T02:18:39;7.40;99.90
14079;DHT22;7115;50.150;8.568;2023-04-03T02:21:06;7.40;99.90
14079;DHT22;7115;50.150;8.568;2023-04-03T02:23:34;7.30;99.90
14079;DHT22;7115;50.150;8.568;2023-04-03T02:26:05;7.30;99.90
14079;DHT22;7115;50.150;8.568;2023-04-03T02:28:32;7.30;99.90
14079;DHT22;7115;50.150;8.568;2023-04-03T02:31:00;7.30;99.90
14079;DHT22;7115;50.150;8.568;2023-04-03T02:33:27;7.30;99.90
14079;DHT22;7115;50.150;8.568;2023-04-03T02:35:54;7.30;99.90
14079;DHT22;7115;50.150;8.568;2023-04-03T02:38:21;7.30;99.90
14079;DHT22;7115;50.150;8.568;2023-04-03T02:40:50;7.30;99.90
14079;DHT22;7115;50.150;8.568;2023-04-03T02:43:18;7.30;99.90
14079;DHT22;7115;50.150;8.568;2023-04-03T02:45:44;7.30;99.90
14079;DHT22;7115;50.150;8.568;2023-04-03T02:48:11;7.30;99.90
14079;DHT22;7115;50.150;8.568;2023-04-03T02:50:38;7.30;99.90
14079;DHT22;7115;50.150;8.568;2023-04-03T02:53:05;7.20;99.90
14079;DHT22;7115;50.150;8.568;2023-04-03T02:55:32;7.20;99.90
14079;DHT22;7115;50.150;8.568;2023-04-03T02:58:00;7.20;99.90
14079;DHT22;7115;50.150;8.568;2023-04-03T03:00:27;7.10;99.90
14079;DHT22;7115;50.150;8.568;2023-04-03T03:02:54;7.10;99.90
14079;DHT22;7115;50.150;8.568;2023-04-03T03:05:21;7.00;99.90
14079;DHT22;7115;50.150;8.568;2023-04-03T03:07:48;7.00;99.90
14079;DHT22;7115;50.150;8.568;2023-04-03T03:10:15;7.00;99.90
14079;DHT22;7115;50.150;8.568;2023-04-03T03:12:42;6.90;99.90
14079;DHT22;7115;50.150;8.568;2023-04-03T03:15:11;6.90;99.90
14079;DHT22;7115;50.150;8.568;2023-04-03T03:17:38;6.80;99.90
14079;DHT22;7115;50.150;8.568;2023-04-03T03:20:06;6.80;99.90
14079;DHT22;7115;50.150;8.568;2023-04-03T03:22:34;6.70;99.90
14079;DHT22;7115;50.150;8.568;2023-04-03T03:25:01;6.70;99.90
14079;DHT22;7115;50.150;8.568;2023-04-03T03:27:28;6.60;99.90
14079;DHT22;7115;50.150;8.568;2023-04-03T03:29:56;6.60;99.90
14079;DHT22;7115;50.150;8.568;2023-04-03T03:32:24;6.50;99.90
14079;DHT22;7115;50.150;8.568;2023-04-03T03:34:51;6.50;99.90
14079;DHT22;7115;50.150;8.568;2023-04-03T03:37:18;6.40;99.90
14079;DHT22;7115;50.150;8.568;2023-04-03T03:39:44;6.40;99.90
14079;DHT22;7115;50.150;8.568;2023-04-03T03:42:11;6.30;99.90
14079;DHT22;7115;50.150;8.568;2023-04-03T03:44:38;6.30;99.90
14079;DHT22;7115;50.150;8.568;2023-04-03T03:47:05;6.20;99.90
14079;DHT22;7115;50.150;8.568;2023-04-03T03:49:34;6.20;99.90
14079;DHT22;7115;50.150;8.568;2023-04-03T03:52:01;6.10;99.90
14079;DHT22;7115;50.150;8.568;2023-04-03T03:54:28;6.10;99.90
14079;DHT22;7115;50.150;8.568;2023-04-03T03:56:55;6.10;99.90
14079;DHT22;7115;50.150;8.568;2023-04-03T03:59:22;6.10;99.90
14079;DHT22;7115;50.150;8.568;2023-04-03T04:01:49;6.10;99.90
14079;DHT22;7115;50.150;8.568;2023-04-03T04:04:15;6.00;99.90
14079;DHT22;7115;50.150;8.568;2023-04-03T04:06:44;6.00;99.90
14079;DHT22;7115;50.150;8.568;2023-04-03T04:09:11;6.00;99.90
14079;DHT22;7115;50.150;8.568;2023-04-03T04:11:38;5.90;99.90
14079;DHT22;7115;50.150;8.568;2023-04-03T04:14:07;5.90;99.90
14079;DHT22;7115;50.150;8.568;2023-04-03T04:16:36;5.80;99.90
14079;DHT22;7115;50.150;8.568;2023-04-03T04:19:03;5.80;99.90
14079;DHT22;7115;50.150;8.568;2023-04-03T04:21:34;5.80;99.90
14079;DHT22;7115;50.150;8.568;2023-04-03T04:24:03;5.70;99.90
14079;DHT22;7115;50.150;8.568;2023-04-03T04:26:30;5.70;99.90
14079;DHT22;7115;50.150;8.568;2023-04-03T04:28:57;5.70;99.90
14079;DHT22;7115;50.150;8.568;2023-04-03T04:31:24;5.70;99.90
14079;DHT22;7115;50.150;8.568;2023-04-03T04:33:51;5.60;99.90
14079;DHT22;7115;50.150;8.568;2023-04-03T04:36:18;5.60;99.90
14079;DHT22;7115;50.150;8.568;2023-04-03T04:38:45;5.70;99.90
14079;DHT22;7115;50.150;8.568;2023-04-03T04:41:14;5.50;99.90
14079;DHT22;7115;50.150;8.568;2023-04-03T04:43:41;5.50;99.90
14079;DHT22;7115;50.150;8.568;2023-04-03T04:46:10;5.50;99.90
14079;DHT22;7115;50.150;8.568;2023-04-03T04:48:38;5.40;99.90
14079;DHT22;7115;50.150;8.568;2023-04-03T04:51:05;5.50;99.90
14079;DHT22;7115;50.150;8.568;2023-04-03T04:53:33;5.40;99.90
14079;DHT22;7115;50.150;8.568;2023-04-03T04:55:59;5.50;99.90
14079;DHT22;7115;50.150;8.568;2023-04-03T04:58:28;5.50;99.90
14079;DHT22;7115;50.150;8.568;2023-04-03T05:00:58;5.40;99.90
14079;DHT22;7115;50.150;8.568;2023-04-03T05:03:26;5.40;99.90
14079;DHT22;7115;50.150;8.568;2023-04-03T05:05:52;5.40;99.90
14079;DHT22;7115;50.150;8.568;2023-04-03T05:08:19;5.40;99.90
14079;DHT22;7115;50.150;8.568;2023-04-03T05:10:46;5.30;99.90
14079;DHT22;7115;50.150;8.568;2023-04-03T05:13:14;5.30;99.90
14079;DHT22;7115;50.150;8.568;2023-04-03T05:15:42;5.30;99.90
14079;DHT22;7115;50.150;8.568;2023-04-03T05:18:09;5.30;99.90
14079;DHT22;7115;50.150;8.568;2023-04-03T05:20:36;5.00;99.90
14079;DHT22;7115;50.150;8.568;2023-04-03T05:23:03;5.30;99.90
14079;DHT22;7115;50.150;8.568;2023-04-03T05:25:30;5.30;99.90
14079;DHT22;7115;50.150;8.568;2023-04-03T05:27:57;5.30;99.90
14079;DHT22;7115;50.150;8.568;2023-04-03T05:30:24;5.30;99.90
14079;DHT22;7115;50.150;8.568;2023-04-03T05:32:52;5.40;99.90
14079;DHT22;7115;50.150;8.568;2023-04-03T05:35:19;5.40;99.90
14079;DHT22;7115;50.150;8.568;2023-04-03T05:37:46;5.40;99.90
14079;DHT22;7115;50.150;8.568;2023-04-03T05:40:13;5.40;99.90
14079;DHT22;7115;50.150;8.568;2023-04-03T05:42:42;5.40;99.90
14079;DHT22;7115;50.150;8.568;2023-04-03T05:45:09;5.40;99.90
14079;DHT22;7115;50.150;8.568;2023-04-03T05:47:37;5.50;99.90
14079;DHT22;7115;50.150;8.568;2023-04-03T05:50:05;5.50;99.90
14079;DHT22;7115;50.150;8.568;2023-04-03T05:52:35;5.60;99.90
14079;DHT22;7115;50.150;8.568;2023-04-03T05:55:02;5.60;99.90
14079;DHT22;7115;50.150;8.568;2023-04-03T05:57:29;5.60;99.90
14079;DHT22;7115;50.150;8.568;2023-04-03T05:59:56;5.60;99.90
14079;DHT22;7115;50.150;8.568;2023-04-03T06:02:24;5.70;99.90
14079;DHT22;7115;50.150;8.568;2023-04-03T06:04:52;5.70;99.90
14079;DHT22;7115;50.150;8.568;2023-04-03T06:07:22;5.80;99.90
14079;DHT22;7115;50.150;8.568;2023-04-03T06:09:50;5.80;99.90
14079;DHT22;7115;50.150;8.568;2023-04-03T06:12:20;5.90;99.90
14079;DHT22;7115;50.150;8.568;2023-04-03T06:14:47;5.90;99.90
14079;DHT22;7115;50.150;8.568;2023-04-03T06:17:15;5.90;99.90
14079;DHT22;7115;50.150;8.568;2023-04-03T06:19:42;6.00;99.90
14079;DHT22;7115;50.150;8.568;2023-04-03T06:22:09;6.00;99.90
14079;DHT22;7115;50.150;8.568;2023-04-03T06:24:39;6.10;99.90
14079;DHT22;7115;50.150;8.568;2023-04-03T06:27:06;6.20;99.90
14079;DHT22;7115;50.150;8.568;2023-04-03T06:29:33;6.20;99.90
14079;DHT22;7115;50.150;8.568;2023-04-03T06:32:00;6.30;99.90
14079;DHT22;7115;50.150;8.568;2023-04-03T06:34:27;6.50;99.90
14079;DHT22;7115;50.150;8.568;2023-04-03T06:36:54;6.60;99.90
14079;DHT22;7115;50.150;8.568;2023-04-03T06:39:22;6.80;99.90
14079;DHT22;7115;50.150;8.568;2023-04-03T06:41:51;7.00;99.90
14079;DHT22;7115;50.150;8.568;2023-04-03T06:44:18;7.10;99.90
14079;DHT22;7115;50.150;8.568;2023-04-03T06:46:45;7.30;99.90
14079;DHT22;7115;50.150;8.568;2023-04-03T06:49:13;7.40;99.90
14079;DHT22;7115;50.150;8.568;2023-04-03T06:51:40;7.60;99.90
14079;DHT22;7115;50.150;8.568;2023-04-03T06:54:07;7.80;99.90
14079;DHT22;7115;50.150;8.568;2023-04-03T06:56:35;7.90;99.90
14079;DHT22;7115;50.150;8.568;2023-04-03T06:59:03;8.20;99.90
14079;DHT22;7115;50.150;8.568;2023-04-03T07:01:30;8.40;99.90
14079;DHT22;7115;50.150;8.568;2023-04-03T07:03:58;8.70;99.90
14079;DHT22;7115;50.150;8.568;2023-04-03T07:06:25;9.20;99.90
14079;DHT22;7115;50.150;8.568;2023-04-03T07:08:54;9.80;99.90
14079;DHT22;7115;50.150;8.568;2023-04-03T07:11:22;10.30;99.90
14079;DHT22;7115;50.150;8.568;2023-04-03T07:13:49;10.90;99.90
14079;DHT22;7115;50.150;8.568;2023-04-03T07:16:17;11.50;99.90
14079;DHT22;7115;50.150;8.568;2023-04-03T07:18:45;12.30;99.90
14079;DHT22;7115;50.150;8.568;2023-04-03T07:21:12;13.00;99.50
14079;DHT22;7115;50.150;8.568;2023-04-03T07:23:40;13.70;98.90
14079;DHT22;7115;50.150;8.568;2023-04-03T07:26:07;14.20;98.10
14079;DHT22;7115;50.150;8.568;2023-04-03T07:28:35;14.40;97.40
14079;DHT22;7115;50.150;8.568;2023-04-03T07:31:07;14.50;96.80
14079;DHT22;7115;50.150;8.568;2023-04-03T07:33:37;14.70;96.50
14079;DHT22;7115;50.150;8.568;2023-04-03T07:36:05;14.80;95.90
14079;DHT22;7115;50.150;8.568;2023-04-03T07:38:34;14.80;95.50
14079;DHT22;7115;50.150;8.568;2023-04-03T07:41:03;14.90;95.10
14079;DHT22;7115;50.150;8.568;2023-04-03T07:43:30;14.90;94.80
14079;DHT22;7115;50.150;8.568;2023-04-03T07:45:57;14.80;94.40
14079;DHT22;7115;50.150;8.568;2023-04-03T07:48:25;14.70;94.10
14079;DHT22;7115;50.150;8.568;2023-04-03T07:50:54;14.70;93.80
14079;DHT22;7115;50.150;8.568;2023-04-03T07:53:25;14.50;93.60
14079;DHT22;7115;50.150;8.568;2023-04-03T07:55:52;14.20;93.40
14079;DHT22;7115;50.150;8.568;2023-04-03T07:58:22;13.90;93.40
14079;DHT22;7115;50.150;8.568;2023-04-03T08:00:49;13.60;93.40
14079;DHT22;7115;50.150;8.568;2023-04-03T08:03:17;13.30;93.30
14079;DHT22;7115;50.150;8.568;2023-04-03T08:05:46;13.10;93.40
14079;DHT22;7115;50.150;8.568;2023-04-03T08:08:17;13.00;93.50
14079;DHT22;7115;50.150;8.568;2023-04-03T08:10:49;13.00;93.60
14079;DHT22;7115;50.150;8.568;2023-04-03T08:13:17;13.00;93.60
14079;DHT22;7115;50.150;8.568;2023-04-03T08:15:44;13.00;93.50
14079;DHT22;7115;50.150;8.568;2023-04-03T08:18:13;12.80;93.50
14079;DHT22;7115;50.150;8.568;2023-04-03T08:20:40;12.80;93.60
14079;DHT22;7115;50.150;8.568;2023-04-03T08:23:08;12.70;93.60
14079;DHT22;7115;50.150;8.568;2023-04-03T08:25:39;12.60;93.60
14079;DHT22;7115;50.150;8.568;2023-04-03T08:28:07;12.50;93.60
14079;DHT22;7115;50.150;8.568;2023-04-03T08:30:34;12.50;93.70
14079;DHT22;7115;50.150;8.568;2023-04-03T08:33:01;12.50;93.60
14079;DHT22;7115;50.150;8.568;2023-04-03T08:35:29;12.50;93.60
14079;DHT22;7115;50.150;8.568;2023-04-03T08:37:57;12.50;93.60
14079;DHT22;7115;50.150;8.568;2023-04-03T08:40:25;12.40;93.50
14079;DHT22;7115;50.150;8.568;2023-04-03T08:43:02;12.60;93.50
14079;DHT22;7115;50.150;8.568;2023-04-03T08:45:40;12.70;93.30
14079;DHT22;7115;50.150;8.568;2023-04-03T08:48:14;12.90;93.20
14079;DHT22;7115;50.150;8.568;2023-04-03T08:50:45;13.00;93.10
14079;DHT22;7115;50.150;8.568;2023-04-03T08:53:15;13.20;93.00
14079;DHT22;7115;50.150;8.568;2023-04-03T08:55:46;13.30;92.90
14079;DHT22;7115;50.150;8.568;2023-04-03T08:58:19;13.40;92.80
14079;DHT22;7115;50.150;8.568;2023-04-03T09:00:50;13.50;92.70
14079;DHT22;7115;50.150;8.568;2023-04-03T09:03:20;13.60;92.60
14079;DHT22;7115;50.150;8.568;2023-04-03T09:05:50;13.70;92.40
14079;DHT22;7115;50.150;8.568;2023-04-03T09:08:23;13.80;92.10
14079;DHT22;7115;50.150;8.568;2023-04-03T09:11:02;13.90;92.00
14079;DHT22;7115;50.150;8.568;2023-04-03T09:13:38;14.00;91.80
14079;DHT22;7115;50.150;8.568;2023-04-03T09:16:20;14.00;91.80
14079;DHT22;7115;50.150;8.568;2023-04-03T09:18:54;13.90;91.50
14079;DHT22;7115;50.150;8.568;2023-04-03T09:21:26;13.90;91.40
14079;DHT22;7115;50.150;8.568;2023-04-03T09:23:57;13.80;91.30
14079;DHT22;7115;50.150;8.568;2023-04-03T09:26:28;13.80;91.20
14079;DHT22;7115;50.150;8.568;2023-04-03T09:28:59;13.70;91.20
14079;DHT22;7115;50.150;8.568;2023-04-03T09:31:32;13.50;91.10
14079;DHT22;7115;50.150;8.568;2023-04-03T09:34:05;13.40;91.20
14079;DHT22;7115;50.150;8.568;2023-04-03T09:36:39;13.50;91.30
14079;DHT22;7115;50.150;8.568;2023-04-03T09:39:11;13.60;91.10
14079;DHT22;7115;50.150;8.568;2023-04-03T09:41:39;13.60;91.10
14079;DHT22;7115;50.150;8.568;2023-04-03T09:44:21;13.60;91.00
14079;DHT22;7115;50.150;8.568;2023-04-03T09:46:49;13.50;90.80
14079;DHT22;7115;50.150;8.568;2023-04-03T09:49:17;13.60;91.00
14079;DHT22;7115;50.150;8.568;2023-04-03T09:51:45;13.70;90.90
14079;DHT22;7115;50.150;8.568;2023-04-03T09:54:31;13.90;90.70
14079;DHT22;7115;50.150;8.568;2023-04-03T09:57:03;14.00;90.30
14079;DHT22;7115;50.150;8.568;2023-04-03T09:59:34;13.90;90.30
14079;DHT22;7115;50.150;8.568;2023-04-03T10:02:04;13.90;90.20
14079;DHT22;7115;50.150;8.568;2023-04-03T10:04:42;13.90;90.10
14079;DHT22;7115;50.150;8.568;2023-04-03T10:07:29;13.80;90.00
14079;DHT22;7115;50.150;8.568;2023-04-03T10:09:57;13.80;89.60
14079;DHT22;7115;50.150;8.568;2023-04-03T10:12:25;13.50;89.60
14079;DHT22;7115;50.150;8.568;2023-04-03T10:14:58;13.10;89.60
14079;DHT22;7115;50.150;8.568;2023-04-03T10:17:35;12.70;89.60
14079;DHT22;7115;50.150;8.568;2023-04-03T10:20:15;12.30;90.00
14079;DHT22;7115;50.150;8.568;2023-04-03T10:23:00;12.00;90.20
14079;DHT22;7115;50.150;8.568;2023-04-03T10:25:34;11.80;90.30
14079;DHT22;7115;50.150;8.568;2023-04-03T10:28:10;11.70;90.40
14079;DHT22;7115;50.150;8.568;2023-04-03T10:30:48;11.70;90.50
14079;DHT22;7115;50.150;8.568;2023-04-03T10:33:27;11.70;90.50
14079;DHT22;7115;50.150;8.568;2023-04-03T10:36:06;11.80;90.50
14079;DHT22;7115;50.150;8.568;2023-04-03T10:38:43;11.90;90.30
14079;DHT22;7115;50.150;8.568;2023-04-03T10:41:17;11.90;90.20
14079;DHT22;7115;50.150;8.568;2023-04-03T10:43:56;11.90;90.00
14079;DHT22;7115;50.150;8.568;2023-04-03T10:46:33;12.00;90.10
14079;DHT22;7115;50.150;8.568;2023-04-03T10:49:13;12.30;90.00
14079;DHT22;7115;50.150;8.568;2023-04-03T10:51:45;12.50;89.50
14079;DHT22;7115;50.150;8.568;2023-04-03T10:54:20;12.50;89.10
14079;DHT22;7115;50.150;8.568;2023-04-03T10:56:51;12.80;89.10
14079;DHT22;7115;50.150;8.568;2023-04-03T10:59:40;13.00;88.70
14079;DHT22;7115;50.150;8.568;2023-04-03T11:02:16;13.30;88.30
14079;DHT22;7115;50.150;8.568;2023-04-03T11:04:50;13.40;87.50
14079;DHT22;7115;50.150;8.568;2023-04-03T11:07:21;13.70;87.50
14079;DHT22;7115;50.150;8.568;2023-04-03T11:09:52;13.80;86.80
14079;DHT22;7115;50.150;8.568;2023-04-03T11:12:24;14.10;86.70
14079;DHT22;7115;50.150;8.568;2023-04-03T11:14:55;14.40;86.40
14079;DHT22;7115;50.150;8.568;2023-04-03T11:17:30;14.90;85.90
14079;DHT22;7115;50.150;8.568;2023-04-03T11:20:06;15.40;84.90
14079;DHT22;7115;50.150;8.568;2023-04-03T11:22:38;15.80;83.70
14079;DHT22;7115;50.150;8.568;2023-04-03T11:25:19;16.00;83.10
14079;DHT22;7115;50.150;8.568;2023-04-03T11:27:51;16.30;82.10
14079;DHT22;7115;50.150;8.568;2023-04-03T11:30:23;16.30;81.40
14079;DHT22;7115;50.150;8.568;2023-04-03T11:33:05;16.40;81.30
14079;DHT22;7115;50.150;8.568;2023-04-03T11:35:38;16.50;80.20
14079;DHT22;7115;50.150;8.568;2023-04-03T11:38:17;16.70;80.30
14079;DHT22;7115;50.150;8.568;2023-04-03T11:40:45;17.20;80.00
14079;DHT22;7115;50.150;8.568;2023-04-03T11:43:22;17.40;77.90
14079;DHT22;7115;50.150;8.568;2023-04-03T11:45:53;17.60;76.20
14079;DHT22;7115;50.150;8.568;2023-04-03T11:48:51;17.60;75.40
14079;DHT22;7115;50.150;8.568;2023-04-03T11:51:42;17.60;73.70
14079;DHT22;7115;50.150;8.568;2023-04-03T12:00:50;18.40;72.50
14079;DHT22;7115;50.150;8.568;2023-04-03T12:04:05;18.60;71.80
14079;DHT22;7115;50.150;8.568;2023-04-03T12:10:18;19.10;69.70
14079;DHT22;7115;50.150;8.568;2023-04-03T12:12:59;19.10;68.30
14079;DHT22;7115;50.150;8.568;2023-04-03T12:15:51;18.90;69.30
14079;DHT22;7115;50.150;8.568;2023-04-03T12:18:55;18.90;67.30
14079;DHT22;7115;50.150;8.568;2023-04-03T12:21:23;18.80;66.60
14079;DHT22;7115;50.150;8.568;2023-04-03T12:24:00;18.70;67.10
14079;DHT22;7115;50.150;8.568;2023-04-03T12:26:36;18.60;66.10
14079;DHT22;7115;50.150;8.568;2023-04-03T12:29:18;18.20;65.80
14079;DHT22;7115;50.150;8.568;2023-04-03T12:31:58;17.80;65.60
14079;DHT22;7115;50.150;8.568;2023-04-03T12:34:45;17.20;65.10
14079;DHT22;7115;50.150;8.568;2023-04-03T12:37:24;16.60;65.50
14079;DHT22;7115;50.150;8.568;2023-04-03T12:40:05;16.20;66.00
14079;DHT22;7115;50.150;8.568;2023-04-03T12:43:01;16.00;66.50
14079;DHT22;7115;50.150;8.568;2023-04-03T12:45:40;15.80;66.10
14079;DHT22;7115;50.150;8.568;2023-04-03T12:48:14;15.30;66.40
14079;DHT22;7115;50.150;8.568;2023-04-03T12:50:43;15.20;67.00
14079;DHT22;7115;50.150;8.568;2023-04-03T12:53:15;15.20;66.90
14079;DHT22;7115;50.150;8.568;2023-04-03T12:55:44;15.10;66.90
14079;DHT22;7115;50.150;8.568;2023-04-03T12:58:19;15.10;66.70
14079;DHT22;7115;50.150;8.568;2023-04-03T13:00:59;15.10;66.60
14079;DHT22;7115;50.150;8.568;2023-04-03T13:03:26;15.00;66.40
14079;DHT22;7115;50.150;8.568;2023-04-03T13:05:55;15.00;66.70
14079;DHT22;7115;50.150;8.568;2023-04-03T13:08:24;14.90;66.70
14079;DHT22;7115;50.150;8.568;2023-04-03T13:10:55;14.80;66.90
14079;DHT22;7115;50.150;8.568;2023-04-03T13:13:24;14.70;67.10
14079;DHT22;7115;50.150;8.568;2023-04-03T13:15:54;14.80;67.40
14079;DHT22;7115;50.150;8.568;2023-04-03T13:18:24;14.80;67.30
14079;DHT22;7115;50.150;8.568;2023-04-03T13:20:52;14.90;67.30
14079;DHT22;7115;50.150;8.568;2023-04-03T13:23:20;14.80;67.00
14079;DHT22;7115;50.150;8.568;2023-04-03T13:25:49;14.40;66.80
14079;DHT22;7115;50.150;8.568;2023-04-03T13:28:19;14.20;67.20
14079;DHT22;7115;50.150;8.568;2023-04-03T13:31:01;14.20;67.70
14079;DHT22;7115;50.150;8.568;2023-04-03T13:33:31;14.00;67.30
14079;DHT22;7115;50.150;8.568;2023-04-03T13:36:03;14.30;67.50
14079;DHT22;7115;50.150;8.568;2023-04-03T13:38:32;14.10;67.70
14079;DHT22;7115;50.150;8.568;2023-04-03T13:41:02;14.00;67.40
14079;DHT22;7115;50.150;8.568;2023-04-03T13:43:32;13.90;67.40
14079;DHT22;7115;50.150;8.568;2023-04-03T13:46:04;13.80;67.60
14079;DHT22;7115;50.150;8.568;2023-04-03T13:48:37;13.80;67.60
14079;DHT22;7115;50.150;8.568;2023-04-03T13:51:12;13.70;67.70
14079;DHT22;7115;50.150;8.568;2023-04-03T13:53:46;13.70;67.80
14079;DHT22;7115;50.150;8.568;2023-04-03T13:56:24;13.60;68.00
14079;DHT22;7115;50.150;8.568;2023-04-03T13:58:55;13.50;68.00
14079;DHT22;7115;50.150;8.568;2023-04-03T14:01:25;13.50;68.00
14079;DHT22;7115;50.150;8.568;2023-04-03T14:03:54;13.40;67.90
14079;DHT22;7115;50.150;8.568;2023-04-03T14:06:22;13.40;68.70
14079;DHT22;7115;50.150;8.568;2023-04-03T14:08:49;13.40;67.80
14079;DHT22;7115;50.150;8.568;2023-04-03T14:11:20;13.30;68.70
14079;DHT22;7115;50.150;8.568;2023-04-03T14:13:47;13.30;68.10
14079;DHT22;7115;50.150;8.568;2023-04-03T14:16:16;13.30;68.10
14079;DHT22;7115;50.150;8.568;2023-04-03T14:18:45;13.40;68.20
14079;DHT22;7115;50.150;8.568;2023-04-03T14:21:15;13.50;68.50
14079;DHT22;7115;50.150;8.568;2023-04-03T14:23:42;13.50;68.60
14079;DHT22;7115;50.150;8.568;2023-04-03T14:26:12;13.40;69.20
14079;DHT22;7115;50.150;8.568;2023-04-03T14:28:39;13.40;68.60
14079;DHT22;7115;50.150;8.568;2023-04-03T14:31:10;13.40;68.60
14079;DHT22;7115;50.150;8.568;2023-04-03T14:33:38;13.40;68.70
14079;DHT22;7115;50.150;8.568;2023-04-03T14:36:13;13.40;68.60
14079;DHT22;7115;50.150;8.568;2023-04-03T14:38:41;13.30;68.70
14079;DHT22;7115;50.150;8.568;2023-04-03T14:41:11;13.30;68.90
14079;DHT22;7115;50.150;8.568;2023-04-03T14:43:42;13.30;68.70
14079;DHT22;7115;50.150;8.568;2023-04-03T14:46:13;13.20;68.60
14079;DHT22;7115;50.150;8.568;2023-04-03T14:48:40;13.20;68.50
14079;DHT22;7115;50.150;8.568;2023-04-03T14:51:11;13.10;68.50
14079;DHT22;7115;50.150;8.568;2023-04-03T14:53:38;13.00;68.60
14079;DHT22;7115;50.150;8.568;2023-04-03T14:56:11;12.90;68.60
14079;DHT22;7115;50.150;8.568;2023-04-03T14:58:39;12.90;68.80
14079;DHT22;7115;50.150;8.568;2023-04-03T15:01:06;12.90;69.00
14079;DHT22;7115;50.150;8.568;2023-04-03T15:03:33;13.00;69.20
14079;DHT22;7115;50.150;8.568;2023-04-03T15:06:00;13.00;69.10
14079;DHT22;7115;50.150;8.568;2023-04-03T15:08:29;13.00;69.10
14079;DHT22;7115;50.150;8.568;2023-04-03T15:10:56;13.00;68.90
14079;DHT22;7115;50.150;8.568;2023-04-03T15:13:24;13.00;68.80
14079;DHT22;7115;50.150;8.568;2023-04-03T15:15:52;12.90;68.20
14079;DHT22;7115;50.150;8.568;2023-04-03T15:18:22;12.60;68.00
14079;DHT22;7115;50.150;8.568;2023-04-03T15:20:49;12.70;68.50
14079;DHT22;7115;50.150;8.568;2023-04-03T15:23:16;12.70;68.90
14079;DHT22;7115;50.150;8.568;2023-04-03T15:25:46;12.70;69.00
14079;DHT22;7115;50.150;8.568;2023-04-03T15:28:18;12.60;69.00
14079;DHT22;7115;50.150;8.568;2023-04-03T15:30:46;12.50;69.10
14079;DHT22;7115;50.150;8.568;2023-04-03T15:33:13;12.40;69.30
14079;DHT22;7115;50.150;8.568;2023-04-03T15:35:43;12.40;69.60
14079;DHT22;7115;50.150;8.568;2023-04-03T15:38:10;12.30;69.70
14079;DHT22;7115;50.150;8.568;2023-04-03T15:40:37;12.20;69.70
14079;DHT22;7115;50.150;8.568;2023-04-03T15:43:06;12.20;70.00
14079;DHT22;7115;50.150;8.568;2023-04-03T15:45:34;12.20;70.00
14079;DHT22;7115;50.150;8.568;2023-04-03T15:48:03;12.20;69.70
14079;DHT22;7115;50.150;8.568;2023-04-03T15:50:30;12.20;69.40
14079;DHT22;7115;50.150;8.568;2023-04-03T15:52:57;12.20;69.20
14079;DHT22;7115;50.150;8.568;2023-04-03T15:55:26;12.30;69.30
14079;DHT22;7115;50.150;8.568;2023-04-03T15:57:53;12.30;69.50
14079;DHT22;7115;50.150;8.568;2023-04-03T16:00:23;12.30;69.60
14079;DHT22;7115;50.150;8.568;2023-04-03T16:02:53;12.30;69.60
14079;DHT22;7115;50.150;8.568;2023-04-03T16:05:20;12.20;69.70
14079;DHT22;7115;50.150;8.568;2023-04-03T16:07:47;12.20;69.80
14079;DHT22;7115;50.150;8.568;2023-04-03T16:10:16;12.10;69.90
14079;DHT22;7115;50.150;8.568;2023-04-03T16:12:43;12.10;70.00
14079;DHT22;7115;50.150;8.568;2023-04-03T16:15:10;12.00;70.00
14079;DHT22;7115;50.150;8.568;2023-04-03T16:17:40;11.90;70.00
14079;DHT22;7115;50.150;8.568;2023-04-03T16:20:11;11.80;69.90
14079;DHT22;7115;50.150;8.568;2023-04-03T16:22:39;11.80;70.00
14079;DHT22;7115;50.150;8.568;2023-04-03T16:25:07;11.90;70.00